X  Fechar Metar - Info de Aeroporto        LGTS Thessaloniki Macedonia International
Temperatura
59°F Temperatura
46°F Ptº Orvalho
63% Humidade



Vento
8 MPH
13 KM/H
4 M/S
7 NÓS



100°
L
Condições Atuais

Mostly Clear Quase claro
Pressão 1020 (hPa) - 30.12 (inHg)
Visibilidade 6 (milha) - 10 (km)
Aeroporto
Código-Aeropoto LGTS

Localização: Thessaloniki Macedonia International
Distância: 85 (mi)

Metar:
METAR LGTS 142250Z 10007KT CAVOK 15/08 Q1020 NOSIG

Hora: 15-04-2024 01:50 EEST